Tustin, Michigan
Current Conditions -  °F | °C
As of 8:15 AM on Sunday 23 Nov 2014 (Local Time) from KCAD Reporting Station
Haze Haze  
Wind Chill: 37°   Ceiling: 100
Heat Index: 43°   Visibility: 0.75mi
Dew Point: 43°   Wind: 10mph
Humidity: 100%   Direction: 200°SSW
Pressure: 29.74"   Gusts: NA
Location:  44.1°N, 85.46°W
Report Text: KCAD 231315Z AUTO 20009KT 3/4SM BR OVC001 06/06 A2974 RMK AO2 T00600060
Loading
Personal Weather Stations






























Interactive Weather Map New forecast layout! Learn more

10-Day Weather Forecast

Advertisements
Track Severe Weather on mobile